Weather observations for the past three days for
Kissimmee Gateway Airport
Metric (Imperial)
Date Time (edt) Wind (kph) Vis. (km) Weather Sky Cond. Temperature (ºC) Relative Humidity Wind Chill (°C) Heat Index (°C) Pressure Precipitation (cm)
Air Dwpt 6 hour altimeter (cm) sea level (mb) 1 hr 3 hr 6 hr
Max. Min.
02 17:56 W 11 16.09 Light Rain FEW036 SCT110 21.1 20 93% 75.87 1011.6 0.03
02 16:56 SW 6 16.09 Light Rain SCT044 BKN050 OVC110 21.1 19.4 90% 75.84 1011.2 0.03 0.03
02 15:56 NW 46 G 54 16.09 A Few Clouds and Windy FEW050 27.2 20 65% 29 75.87 1011.7
02 14:56 W 31 G 46 16.09 Fair CLR 29.4 20 57% 31 75.84 1011.1
02 13:56 SW 20 16.09 Thunderstorm in Vicinity SCT055 BKN100 29.4 21.7 30.6 21.7 63% 32 75.84 1011.1
02 12:56 SW 37 G 43 16.09 Partly Cloudy and Breezy FEW031 SCT090 30.6 20.6 55% 33 75.84 1011.2
02 11:56 SW 22 16.09 A Few Clouds FEW055 28.9 21.1 63% 31 75.92 1012.3
02 10:56 SW 15 16.09 Overcast OVC047 27.2 20.6 67% 29 75.95 1012.5
02 09:56 S 11 16.09 Overcast OVC055 25.6 20 71% 27 75.92 1012.3
02 08:56 S 13 16.09 A Few Clouds FEW055 23.9 20 79% 24 75.9 1011.8
02 07:56 S 9 16.09 Fair CLR 21.7 21.1 22.2 20 96% 75.84 1011.3
02 06:56 S 6 14.48 Overcast OVC060 20 19.4 96% 75.82 1010.9
02 05:56 Calm 16.09 Fair CLR 20 19.4 96% 75.82 1010.8
02 04:56 Calm 16.09 Fair CLR 20.6 20 96% 75.87 1011.5
02 03:56 SW 6 16.09 Fair CLR 21.1 19.4 90% 75.84 1011.2
02 02:56 W 9 16.09 Fair CLR 21.7 20 90% 75.87 1011.4
02 01:56 W 9 16.09 Fair CLR 22.2 19.4 29.4 22.2 84% 75.9 1011.8
02 00:56 W 11 16.09 Fair CLR 22.8 19.4 81% 75.9 1012.1
01 23:56 W 13 16.09 Fair CLR 23.9 18.9 74% 25 75.92 1012.3
01 22:56 W 11 16.09 Fair CLR 25 18.3 66% 26 75.92 1012.2
01 21:56 NW 13 16.09 Fair CLR 26.7 17.2 56% 27 75.9 1012.0
01 20:56 W 13 16.09 Fair CLR 27.8 17.2 53% 28 75.84 1011.2
01 19:56 W 11 16.09 Fair CLR 29.4 17.8 32.8 29.4 50% 30 75.77 1010.3
01 18:56 W 13 16.09 Fair CLR 31.7 16.7 41% 32 75.74 1009.8
01 17:56 SW 17 16.09 Overcast OVC070 32.2 16.7 39% 32 75.69 1009.3
01 16:56 SW 13 16.09 Fair CLR 32.8 16.1 37% 33 75.72 1009.6
01 15:56 W 13 16.09 A Few Clouds FEW060 32.8 16.1 37% 33 75.77 1010.1
01 14:56 SW 20 G 26 16.09 A Few Clouds FEW060 32.2 17.2 41% 33 75.87 1011.5
01 13:56 NW 13 16.09 Fair CLR 32.2 17.8 32.2 22.2 42% 33 75.92 1012.2
01 12:56 W 17 16.09 Fair CLR 30.6 18.3 48% 32 75.95 1012.6
01 11:56 NW 13 16.09 A Few Clouds FEW035 29.4 19.4 55% 31 76 1013.2
01 10:56 W 13 16.09 Fair CLR 28.3 19.4 59% 30 76.02 1013.5
01 09:56 Vrbl 9 16.09 Fair CLR 26.7 20.6 69% 28 76 1013.4
01 08:56 W 13 16.09 Fair CLR 23.9 21.7 88% 24 76 1013.4
01 07:56 W 7 16.09 Fair CLR 22.2 21.7 22.8 21.1 97% 75.97 1013.0
01 06:56 SW 7 16.09 Fair CLR 21.7 21.1 96% 75.92 1012.4
01 05:56 W 9 16.09 Fair CLR 21.7 21.1 96% 75.9 1012.0
01 04:56 W 9 16.09 A Few Clouds FEW012 21.7 20.6 94% 75.87 1011.5
01 03:56 W 9 16.09 Fair CLR 21.7 20.6 94% 75.9 1011.8
01 02:56 SW 6 16.09 Fair CLR 21.7 19.4 87% 75.9 1011.9
01 01:56 W 11 16.09 Fair CLR 22.8 20 27.8 22.8 84% 75.92 1012.4
01 00:56 W 7 16.09 Fair CLR 23.3 20 82% 75.97 1012.9
30 23:56 W 11 16.09 Fair CLR 24.4 19.4 74% 25 75.95 1012.8
30 22:56 W 13 16.09 Fair CLR 24.4 18.3 69% 25 75.92 1012.4
30 21:56 W 11 16.09 Fair CLR 26.1 17.8 60% 27 75.92 1012.1
30 20:56 W 13 16.09 Fair CLR 26.7 17.8 58% 28 75.9 1011.8
30 19:56 W 13 16.09 Partly Cloudy SCT060 27.8 17.2 32.2 27.8 53% 28 75.82 1010.9
30 18:56 W 17 16.09 Fair CLR 29.4 16.1 45% 30 75.77 1010.3
30 17:56 W 20 16.09 Fair CLR 30.6 15.6 40% 30 75.77 1010.1
30 16:56 W 26 G 35 16.09 Partly Cloudy SCT070 31.7 16.7 41% 32 75.74 1010.0
30 15:56 W 22 16.09 Fair CLR 31.7 15.6 38% 31 75.77 1010.3
30 14:56 W 17 G 30 16.09 Partly Cloudy SCT080 31.1 16.7 42% 31 75.84 1011.2
30 13:56 W 19 G 33 16.09 Partly Cloudy SCT049 30.6 17.8 30.6 21.7 46% 31 75.9 1012.0
30 12:56 W 19 16.09 Fair CLR 28.3 17.8 53% 29 75.95 1012.4
30 11:56 Vrbl 9 16.09 A Few Clouds FEW035 28.3 18.3 55% 29 76 1013.2
30 10:56 W 15 16.09 Fair CLR 26.7 18.9 62% 28 76 1013.3
30 09:56 SW 13 16.09 Fair CLR 24.4 20.6 79% 25 76.02 1013.5
30 08:56 W 13 16.09 Fair CLR 23.9 20.6 82% 24 76.02 1013.7
30 07:56 W 6 16.09 Fair CLR 21.7 20.6 22.2 21.1 94% 76 1013.2
30 06:56 SW 9 16.09 Fair CLR 21.1 20.6 97% 75.95 1012.6
30 05:56 W 9 16.09 Fair CLR 21.1 20.6 97% 75.92 1012.4
30 04:56 SW 6 16.09 Fair CLR 21.1 20.6 97% 75.92 1012.2
30 03:56 W 6 16.09 Fair CLR 21.7 20.6 94% 75.95 1012.7
30 02:56 Calm 16.09 Fair CLR 21.7 20 90% 75.97 1012.8
30 01:56 Calm 16.09 Fair CLR 22.2 20.6 28.3 22.2 91% 76.02 1013.5
30 00:56 NW 7 16.09 Fair CLR 23.3 20.6 85% 76.1 1014.7
29 23:56 NW 15 16.09 Fair CLR 23.9 19.4 76% 24 76.1 1014.8
29 22:56 W 7 16.09 Fair CLR 25.6 19.4 69% 27 76.1 1014.6
29 21:56 W 15 16.09 Fair CLR 26.7 18.9 62% 28 76.05 1014.0
29 20:56 SW 7 16.09 Fair CLR 27.2 18.9 61% 28 75.97 1012.9
29 19:56 SE 9 16.09 Fair CLR 28.3 18.9 31.1 28.3 57% 30 75.9 1012.0
29 18:56 S 9 16.09 Fair CLR 30.6 16.1 42% 31 75.9 1011.9
Date Time (edt) Wind (kph) Vis. (km) Weather Sky Cond. Air Dwpt Max. Min. Relative Humidity Wind Chill (°C) Heat Index (°C) altimeter (cm) sea level (mb) 1 hr 3 hr 6 hr
6 hour
Temperature (ºC) Pressure Precipitation (cm)